Sodak Park, South Dakota
Current Conditions -  °F | °C
As of 8:54 PM on Sunday 23 Nov 2014 (Local Time) from KVVV Reporting Station
Overcast Overcast  
Wind Chill: -12°   Ceiling: 1300
Heat Index: -4°   Visibility: 7mi
Dew Point: -7°   Wind: 22mph
Humidity: 80%   Direction: 320°NW
Pressure: 29.53"   Gusts: 29mph
Location:  45.4152°N, 96.8664°W
Report Text: KVVV 240254Z AUTO 32019G25KT 7SM OVC013 M04/M07 A2953 RMK AO2
Loading
Personal Weather Stations






























Interactive Weather Map New forecast layout! Learn more

10-Day Weather Forecast

Advertisements
Track Severe Weather on mobile